Aviation Digital Data Service (ADDS)

Output produced by METARs form (1912 UTC 25 June 2017)
found at http://www.aviationweather.gov/adds/metars/
 
KEWR 251824Z 2518/2624 24012G20KT P6SM SCT070 
     FM251910 30010G20KT P6SM VCSH BKN070 
     FM252000 VRB06KT P6SM BKN070 
     FM252030 25010KT P6SM BKN070 
     FM260100 24007KT P6SM SCT070 
     FM260400 27006KT P6SM SCT120 
     FM261600 27011G18KT P6SM SCT050 
     FM261800 24013G20KT P6SM SCT070